Time;durP1;ratioP1;P1;durP2;ratioP2;P2;SDS_P1;SDS_P2;PMS_P1;PMS_P2;Temp;Humidity;BMP_temperature;BMP_pressure;BME280_temperature;BME280_humidity;BME280_pressure;Samples;Min_cycle;Max_cycle;Signal;HPM_P1;HPM_P2
2020/12/02 00:00:42;;;;;;;;;77.00;61.75;;;;;5.36;45.77;99468.28;6228840;28;97359;-58
2020/12/02 00:03:53;;;;;;;;;73.00;59.00;;;;;5.46;45.61;99474.25;6235520;28;98471;-58
2020/12/02 00:42:24;;;;;;;;;73.00;59.00;;;;;5.81;45.30;99477.41;6207895;28;97557;-58
2020/12/02 00:45:26;;;;;;;;;72.00;57.00;;;;;5.83;45.27;99480.72;6208997;28;97242;-58
2020/12/02 00:48:31;;;;;;;;;75.00;58.25;;;;;5.80;45.36;99478.41;6191954;28;98115;-58
2020/12/02 00:51:32;;;;;;;;;74.20;59.80;;;;;5.78;45.46;99477.72;6228077;28;97080;-58
2020/12/02 00:54:35;;;;;;;;;74.80;58.60;;;;;5.81;45.44;99491.63;6215974;28;97261;-58
2020/12/02 00:57:37;;;;;;;;;74.40;58.40;;;;;5.84;45.44;99477.03;6215716;28;97303;-58
2020/12/02 01:00:40;;;;;;;;;75.80;64.00;;;;;5.70;45.24;99440.34;6207412;28;97442;-58
2020/12/02 01:03:42;;;;;;;;;76.00;61.20;;;;;5.94;45.03;99473.16;6210160;28;97470;-58
2020/12/02 01:06:46;;;;;;;;;77.00;62.50;;;;;5.96;45.10;99470.31;6209018;28;96593;-58
2020/12/02 01:09:51;;;;;;;;;75.00;59.00;;;;;5.97;45.09;99478.13;6219608;28;97549;-58
2020/12/02 01:12:52;;;;;;;;;77.00;63.25;;;;;5.91;45.12;99467.34;6215309;28;97260;-58
2020/12/02 01:15:53;;;;;;;;;77.00;63.00;;;;;5.97;44.93;99472.78;6208969;28;97933;-58
2020/12/02 01:18:56;;;;;;;;;72.75;59.00;;;;;5.99;44.84;99467.25;6228487;28;97598;-58
2020/12/02 01:22:28;;;;;;;;;77.40;62.40;;;;;5.98;45.21;99481.66;6233513;28;96747;-58
2020/12/02 01:25:29;;;;;;;;;77.20;65.60;;;;;5.97;45.08;99474.63;6209271;28;97308;-58
2020/12/02 01:28:33;;;;;;;;;78.00;63.80;;;;;5.96;45.11;99471.13;6224904;28;96948;-58
2020/12/02 01:31:36;;;;;;;;;80.00;64.00;;;;;5.84;44.90;99450.28;6233205;28;97456;-58
2020/12/02 01:34:37;;;;;;;;;76.00;62.60;;;;;5.73;45.15;99437.28;6220760;28;96980;-58
2020/12/02 01:37:41;;;;;;;;;77.20;64.80;;;;;5.89;44.60;99464.81;6210624;28;97040;-58
2020/12/02 01:40:42;;;;;;;;;77.80;64.80;;;;;5.99;44.65;99470.78;6233231;28;98396;-58
2020/12/02 01:43:45;;;;;;;;;75.60;64.00;;;;;5.98;45.11;99465.59;6232925;28;97960;-58
2020/12/02 01:47:02;;;;;;;;;77.50;61.50;;;;;5.98;44.69;99473.63;6216451;28;97015;-58
2020/12/02 01:50:38;;;;;;;;;76.60;61.60;;;;;5.98;44.83;99473.63;6208455;28;97490;-58
2020/12/02 01:53:45;;;;;;;;;76.50;63.00;;;;;5.93;44.67;99476.84;6207940;28;97484;-58
2020/12/02 01:56:57;;;;;;;;;80.60;68.60;;;;;5.89;44.55;99480.88;6208179;28;98398;-58
2020/12/02 02:00:13;;;;;;;;;79.00;67.00;;;;;5.73;44.57;99472.06;6207271;28;97266;-58
2020/12/02 02:03:16;;;;;;;;;78.40;65.00;;;;;5.87;44.62;99487.41;6208004;28;97393;-58
2020/12/02 02:06:31;;;;;;;;;77.75;65.75;;;;;5.73;44.64;99464.88;6211914;28;97103;-58
2020/12/02 02:09:34;;;;;;;;;78.50;66.50;;;;;5.67;44.47;99478.97;6212780;28;97036;-58
2020/12/02 02:12:36;;;;;;;;;78.60;66.60;;;;;5.59;45.05;99479.00;6232419;28;97177;-58
2020/12/02 02:15:48;;;;;;;;;80.75;66.75;;;;;5.54;44.98;99462.66;6227878;28;97529;-58
2020/12/02 02:18:50;;;;;;;;;79.60;66.20;;;;;5.60;45.40;99468.16;6208924;28;97598;-58
2020/12/02 02:21:56;;;;;;;;;80.60;71.00;;;;;5.66;45.02;99474.66;6190169;28;97118;-58
2020/12/02 02:24:58;;;;;;;;;79.60;69.00;;;;;5.67;45.18;99470.94;6215716;28;97118;-58
2020/12/02 02:28:02;;;;;;;;;80.80;69.20;;;;;5.67;45.18;99477.13;6232435;28;97164;-58
2020/12/02 02:31:10;;;;;;;;;77.60;64.60;;;;;5.65;45.13;99470.28;6231997;28;97157;-58
2020/12/02 02:34:12;;;;;;;;;81.00;67.00;;;;;5.51;45.29;99477.22;6232318;28;97496;-58
2020/12/02 02:37:15;;;;;;;;;82.00;65.40;;;;;5.46;45.75;99471.56;6208256;28;98579;-58
2020/12/02 02:40:19;;;;;;;;;78.50;66.50;;;;;5.51;45.40;99477.22;6213955;28;98499;-58
2020/12/02 02:43:20;;;;;;;;;83.60;68.60;;;;;5.55;45.44;99478.53;6213760;28;97483;-58
2020/12/02 02:46:22;;;;;;;;;80.75;65.00;;;;;5.58;45.48;99477.34;6232543;28;97443;-58
2020/12/02 02:49:24;;;;;;;;;83.80;67.80;;;;;5.63;45.19;99480.31;6230561;28;96491;-58
2020/12/02 02:52:26;;;;;;;;;84.00;69.25;;;;;5.68;45.00;99480.63;6234813;27;97195;-58
2020/12/02 02:55:28;;;;;;;;;79.60;67.20;;;;;5.46;45.18;99447.50;6220205;28;97362;-58
2020/12/02 02:58:30;;;;;;;;;84.60;68.80;;;;;5.61;44.96;99472.50;6236116;28;98085;-58
2020/12/02 03:01:34;;;;;;;;;86.50;68.50;;;;;5.48;44.69;99449.97;6235567;28;96843;-58
2020/12/02 03:04:35;;;;;;;;;78.40;66.00;;;;;5.76;44.60;99479.78;6235314;28;98513;-58
2020/12/02 03:07:40;;;;;;;;;81.75;67.00;;;;;5.78;44.56;99483.91;6236801;28;99249;-58
2020/12/02 03:10:44;;;;;;;;;80.00;65.50;;;;;5.81;44.51;99480.91;6236404;28;98536;-58
2020/12/02 03:13:49;;;;;;;;;82.50;68.00;;;;;5.76;44.37;99480.59;6222104;28;97187;-58
2020/12/02 03:16:53;;;;;;;;;80.80;67.00;;;;;5.72;44.41;99468.56;6235842;28;97448;-58
2020/12/02 03:20:04;;;;;;;;;85.25;66.75;;;;;5.80;44.19;99484.59;6235664;28;96977;-58
2020/12/02 03:23:10;;;;;;;;;79.80;67.20;;;;;5.69;43.79;99468.94;6232252;28;97461;-58
2020/12/02 03:26:13;;;;;;;;;77.60;67.80;;;;;5.78;43.89;99475.91;6195078;28;98239;-58
2020/12/02 03:29:16;;;;;;;;;82.20;68.00;;;;;5.76;43.72;99471.75;6235972;28;97196;-58
2020/12/02 03:32:20;;;;;;;;;77.80;66.20;;;;;5.56;43.85;99449.97;6232837;28;97138;-58
2020/12/02 03:35:21;;;;;;;;;80.00;66.00;;;;;5.79;44.08;99476.72;6215425;28;96843;-58
2020/12/02 03:38:24;;;;;;;;;76.80;62.20;;;;;5.81;43.99;99480.06;6210608;28;97313;-58
2020/12/02 03:41:25;;;;;;;;;74.80;59.80;;;;;5.79;43.77;99480.25;6211036;28;98532;-58
2020/12/02 03:44:26;;;;;;;;;74.00;57.00;;;;;5.77;43.52;99479.56;6201317;28;98820;-58
2020/12/02 03:47:28;;;;;;;;;74.40;57.20;;;;;5.76;43.68;99477.94;6210061;28;97520;-58
2020/12/02 03:50:30;;;;;;;;;71.40;58.60;;;;;5.66;43.06;99491.53;6208540;28;97124;-58
2020/12/02 03:53:31;;;;;;;;;77.00;65.00;;;;;5.56;43.10;99490.91;6228441;28;98382;-58
2020/12/02 03:56:32;;;;;;;;;88.00;72.00;;;;;5.46;43.16;99500.16;6211051;28;97408;-58
2020/12/02 03:59:34;;;;;;;;;79.40;68.00;;;;;5.40;43.38;99492.81;6230535;28;97104;-58
2020/12/02 04:02:36;;;;;;;;;83.40;73.00;;;;;5.07;43.74;99450.19;6234165;28;98118;-58
2020/12/02 04:05:37;;;;;;;;;76.75;59.25;;;;;4.87;44.63;99502.34;6213061;28;97538;-58
2020/12/02 04:08:40;;;;;;;;;73.60;57.00;;;;;4.83;44.45;99509.03;6215404;28;97200;-58
2020/12/02 04:11:42;;;;;;;;;70.25;57.75;;;;;4.77;44.67;99501.69;6234075;28;96905;-58
2020/12/02 04:14:43;;;;;;;;;73.00;57.00;;;;;4.52;44.98;99502.72;6221340;28;97164;-58
2020/12/02 04:17:45;;;;;;;;;72.80;56.20;;;;;4.19;45.44;99501.91;6210049;28;97128;-58
2020/12/02 04:20:47;;;;;;;;;71.60;55.20;;;;;4.15;45.05;99505.91;6210535;28;97053;-58
2020/12/02 04:23:48;;;;;;;;;75.00;55.00;;;;;4.20;45.22;99498.25;6209606;28;96871;-58
2020/12/02 04:26:50;;;;;;;;;69.80;55.00;;;;;3.99;45.15;99471.19;6210158;28;97125;-58
2020/12/02 04:29:51;;;;;;;;;71.80;56.20;;;;;4.28;45.57;99504.41;6209497;28;96835;-58
2020/12/02 04:32:53;;;;;;;;;72.00;55.40;;;;;4.40;45.23;99498.75;6209698;28;97254;-58
2020/12/02 04:35:54;;;;;;;;;74.40;57.00;;;;;4.44;45.16;99505.41;6213999;28;97264;-58
2020/12/02 04:38:55;;;;;;;;;75.00;60.00;;;;;4.44;45.15;99508.09;6210968;28;97447;-58
2020/12/02 04:41:57;;;;;;;;;72.60;57.00;;;;;4.48;45.22;99512.09;6234006;28;96894;-58
2020/12/02 04:44:59;;;;;;;;;70.50;53.50;;;;;4.49;44.93;99511.09;6220483;28;97581;-58
2020/12/02 04:48:11;;;;;;;;;72.00;55.00;;;;;4.47;44.99;99505.06;6209883;28;98509;-58
2020/12/02 04:51:27;;;;;;;;;71.75;53.00;;;;;4.51;44.85;99511.72;6209022;28;98086;-58
2020/12/02 04:54:30;;;;;;;;;74.60;58.60;;;;;4.24;44.87;99475.56;6217806;28;98222;-58
2020/12/02 04:57:31;;;;;;;;;74.67;57.33;;;;;4.48;44.94;99510.25;6215755;28;97972;-58
2020/12/02 05:00:34;;;;;;;;;72.00;55.75;;;;;4.49;44.98;99509.25;6210872;28;96869;-58
2020/12/02 05:03:35;;;;;;;;;72.00;54.00;;;;;4.46;44.99;99511.41;6209218;28;96600;-58
2020/12/02 05:06:45;;;;;;;;;75.50;57.50;;;;;4.53;44.88;99501.72;6234090;28;98109;-58
2020/12/02 05:09:57;;;;;;;;;69.40;52.80;;;;;3.79;45.88;99473.34;6228155;28;97317;-58
2020/12/02 05:13:09;;;;;;;;;72.00;57.00;;;;;4.08;45.49;99512.91;6209662;28;99409;-58
2020/12/02 05:16:12;;;;;;;;;73.00;59.00;;;;;4.07;45.61;99513.88;6216491;28;96727;-58
2020/12/02 05:19:19;;;;;;;;;72.60;58.40;;;;;4.07;45.31;99496.06;6208975;28;96908;-58
2020/12/02 05:22:20;;;;;;;;;71.40;57.20;;;;;4.14;45.15;99518.41;6208758;28;97614;-58
2020/12/02 05:25:22;;;;;;;;;71.25;53.00;;;;;3.97;45.83;99519.38;6214408;28;96479;-58
2020/12/02 05:28:30;;;;;;;;;70.40;54.00;;;;;3.88;46.06;99512.38;6208215;28;97480;-58
2020/12/02 05:31:33;;;;;;;;;71.60;56.20;;;;;3.91;46.00;99515.53;6209937;28;97065;-58
2020/12/02 05:34:34;;;;;;;;;72.00;53.00;;;;;3.92;46.43;99517.22;6230391;28;97370;-58
2020/12/02 05:37:50;;;;;;;;;73.00;58.00;;;;;4.10;45.84;99514.41;6233979;28;97422;-58
2020/12/02 05:40:54;;;;;;;;;73.80;54.60;;;;;4.18;45.40;99521.59;6231702;28;97313;-58
2020/12/02 05:44:11;;;;;;;;;72.25;56.25;;;;;4.26;45.40;99510.91;6220992;28;97454;-58
2020/12/02 05:47:19;;;;;;;;;73.25;57.00;;;;;4.19;45.19;99501.91;6219654;28;98113;-58
2020/12/02 05:50:24;;;;;;;;;70.60;55.00;;;;;4.33;45.29;99512.75;6208782;28;97275;-58
2020/12/02 05:53:42;;;;;;;;;67.20;51.20;;;;;4.12;45.67;99519.56;6218705;28;97467;-58
2020/12/02 05:56:44;;;;;;;;;66.80;52.00;;;;;3.89;45.46;99522.03;6232724;28;97849;-58
2020/12/02 05:59:47;;;;;;;;;69.80;54.60;;;;;3.99;45.82;99522.72;6232948;28;97327;-58
2020/12/02 06:02:52;;;;;;;;;67.00;51.00;;;;;4.01;45.63;99520.72;6227447;28;97443;-58
2020/12/02 06:05:59;;;;;;;;;70.00;52.00;;;;;3.84;45.14;99481.69;6208222;28;97074;-58
2020/12/02 06:09:00;;;;;;;;;70.00;53.00;;;;;4.18;45.11;99525.09;6207739;28;97027;-57
2020/12/02 06:12:04;;;;;;;;;69.00;53.00;;;;;4.24;45.07;99520.94;6208467;28;97067;-58
2020/12/02 06:15:18;;;;;;;;;73.00;52.00;;;;;4.21;45.08;99524.75;6231875;28;98098;-58
2020/12/02 06:18:27;;;;;;;;;68.00;51.00;;;;;4.25;44.86;99530.59;6232911;28;98210;-58
2020/12/02 06:21:39;;;;;;;;;67.00;50.00;;;;;3.72;45.43;99480.31;6234905;27;98581;-58
2020/12/02 06:24:44;;;;;;;;;62.50;48.50;;;;;4.13;45.33;99523.91;6221948;27;97473;-58
2020/12/02 06:27:45;;;;;;;;;65.40;50.60;;;;;3.90;45.47;99526.38;6226398;27;97396;-58
2020/12/02 06:30:57;;;;;;;;;64.00;49.00;;;;;4.16;44.87;99535.06;6212425;28;97721;-58
2020/12/02 06:34:06;;;;;;;;;61.60;46.00;;;;;4.23;44.76;99536.09;6235771;28;97587;-58
2020/12/02 06:37:16;;;;;;;;;64.00;48.80;;;;;4.24;44.70;99529.78;6237077;28;97785;-58
2020/12/02 06:40:18;;;;;;;;;60.00;46.00;;;;;4.19;44.83;99532.09;6234707;28;96678;-58
2020/12/02 06:43:22;;;;;;;;;59.60;46.00;;;;;4.04;44.91;99528.41;6225603;28;97440;-58
2020/12/02 06:46:54;;;;;;;;;62.00;46.25;;;;;3.83;44.93;99485.34;6235679;28;97467;-58
2020/12/02 06:50:02;;;;;;;;;57.20;44.20;;;;;3.99;44.75;99496.06;6220623;28;97300;-58
2020/12/02 06:53:21;;;;;;;;;53.20;43.20;;;;;4.24;44.94;99529.78;6230560;28;97206;-59
2020/12/02 06:56:22;;;;;;;;;56.75;44.75;;;;;4.30;44.32;99529.09;6225006;28;96942;-58
2020/12/02 06:59:24;;;;;;;;;57.20;46.00;;;;;4.43;44.15;99533.94;6234045;28;97698;-59
2020/12/02 07:02:37;;;;;;;;;57.00;45.60;;;;;4.56;44.17;99536.09;6236258;28;98443;-58
2020/12/02 07:05:43;;;;;;;;;58.00;44.00;;;;;4.56;43.80;99526.25;6235337;28;97190;-59
2020/12/02 07:08:48;;;;;;;;;61.40;45.20;;;;;4.50;43.67;99537.59;6233551;28;98119;-58
2020/12/02 07:12:01;;;;;;;;;57.40;46.00;;;;;4.31;44.11;99537.94;6228431;28;96719;-58
2020/12/02 07:15:03;;;;;;;;;60.25;46.00;;;;;4.43;43.59;99533.94;6229380;28;96810;-58
2020/12/02 07:18:13;;;;;;;;;56.00;43.25;;;;;4.28;43.82;99532.94;6236105;28;97444;-58
2020/12/02 07:21:42;;;;;;;;;51.20;41.60;;;;;4.10;44.13;99529.59;6235764;28;97028;-58
2020/12/02 07:24:45;;;;;;;;;60.00;46.25;;;;;4.00;44.12;99540.41;6236460;28;97546;-58
2020/12/02 07:27:47;;;;;;;;;59.00;45.60;;;;;4.09;43.98;99528.75;6217235;28;97338;-58
2020/12/02 07:30:48;;;;;;;;;56.00;43.60;;;;;4.10;44.00;99534.94;6235544;28;97506;-58
2020/12/02 07:34:17;;;;;;;;;60.40;46.00;;;;;4.21;43.53;99542.59;6218547;28;96933;-58
2020/12/02 07:37:20;;;;;;;;;56.00;44.75;;;;;4.13;43.47;99534.59;6227242;27;96606;-58
2020/12/02 07:40:34;;;;;;;;;59.40;46.00;;;;;4.22;43.60;99537.09;6229694;28;98272;-58
2020/12/02 07:43:36;;;;;;;;;53.00;42.00;;;;;3.99;43.72;99536.06;6235844;28;97348;-60
2020/12/02 07:46:38;;;;;;;;;53.20;44.00;;;;;3.78;44.40;99527.66;6235196;28;97357;-58
2020/12/02 07:49:54;;;;;;;;;55.00;44.00;;;;;3.41;44.72;99520.91;6234575;28;98168;-58
2020/12/02 07:53:16;;;;;;;;;57.20;44.60;;;;;3.40;44.82;99523.72;6235216;28;97758;-59
2020/12/02 07:56:27;;;;;;;;;56.00;44.00;;;;;3.67;44.81;99534.13;6235392;28;97411;-59
2020/12/02 07:59:31;;;;;;;;;56.60;44.00;;;;;3.74;44.38;99527.16;6227816;28;97095;-58
2020/12/02 08:02:39;;;;;;;;;59.75;44.00;;;;;3.86;44.45;99522.38;6211070;28;97552;-60
2020/12/02 08:06:00;;;;;;;;;56.00;44.40;;;;;3.90;43.93;99523.72;6213814;28;97612;-60
2020/12/02 08:09:04;;;;;;;;;61.00;45.60;;;;;3.99;44.04;99521.88;6233854;28;97456;-61
2020/12/02 08:12:19;;;;;;;;;56.00;44.00;;;;;3.93;43.59;99499.38;6234000;28;97484;-60
2020/12/02 08:15:21;;;;;;;;;56.00;44.00;;;;;4.15;43.39;99522.75;6217077;28;96861;-60
2020/12/02 08:18:26;;;;;;;;;56.00;44.00;;;;;4.20;43.19;99525.75;6233697;28;96459;-60
2020/12/02 08:21:28;;;;;;;;;58.80;44.40;;;;;4.16;42.68;99520.91;6234320;28;96757;-60
2020/12/02 08:24:33;;;;;;;;;55.00;44.00;;;;;4.22;43.22;99523.75;6228505;28;98500;-61
2020/12/02 08:27:49;;;;;;;;;57.80;45.80;;;;;4.27;43.04;99526.75;6208829;28;97182;-60
2020/12/02 08:31:15;;;;;;;;;58.00;45.60;;;;;4.24;42.69;99527.09;6208115;28;96967;-61
2020/12/02 08:34:27;;;;;;;;;58.80;44.40;;;;;3.74;43.12;99519.16;6218815;27;97142;-60
2020/12/02 08:37:38;;;;;;;;;62.00;48.00;;;;;3.67;43.45;99522.63;6200950;28;98319;-60
2020/12/02 08:40:44;;;;;;;;;62.00;47.00;;;;;3.66;44.17;99519.16;6222798;27;97533;-61
2020/12/02 08:43:48;;;;;;;;;57.20;45.20;;;;;3.09;44.49;99517.22;6215218;28;97175;-60
2020/12/02 08:47:10;;;;;;;;;62.50;48.00;;;;;2.42;45.55;99476.22;6214618;27;97714;-59
2020/12/02 08:50:23;;;;;;;;;62.80;48.20;;;;;2.88;45.35;99525.63;6224363;27;98793;-61
2020/12/02 08:53:28;;;;;;;;;64.00;49.80;;;;;2.97;45.23;99524.69;6208430;28;98529;-61
2020/12/02 08:56:35;;;;;;;;;68.67;50.67;;;;;3.01;45.11;99518.03;6230856;27;96732;-60
2020/12/02 08:59:36;;;;;;;;;65.20;49.20;;;;;3.15;45.56;99513.94;6232598;28;97224;-60
2020/12/02 09:02:38;;;;;;;;;64.40;50.00;;;;;3.34;44.97;99521.69;6228874;27;97169;-59
2020/12/02 09:05:39;;;;;;;;;63.60;50.00;;;;;3.53;44.82;99507.25;6220930;27;97460;-60
2020/12/02 09:08:41;;;;;;;;;62.60;48.00;;;;;3.51;45.04;99515.44;6232939;28;97465;-59
2020/12/02 09:11:42;;;;;;;;;66.25;50.00;;;;;3.61;44.26;99499.31;6251820;27;97115;-60
2020/12/02 09:14:45;;;;;;;;;64.40;49.40;;;;;3.77;44.59;99494.84;6258492;27;97311;-59
2020/12/02 09:17:46;;;;;;;;;62.60;47.60;;;;;3.23;44.59;99418.88;6250771;27;98461;-60
2020/12/02 09:20:48;;;;;;;;;60.60;46.60;;;;;3.68;44.44;99485.16;6224446;27;97226;-60
2020/12/02 09:23:49;;;;;;;;;62.00;46.50;;;;;3.57;44.91;99488.09;6230274;28;97102;-62
2020/12/02 09:26:50;;;;;;;;;62.75;48.00;;;;;3.69;45.03;99476.16;6223579;28;97464;-61
2020/12/02 09:29:52;;;;;;;;;60.80;47.40;;;;;3.67;44.52;99455.97;6208258;27;97872;-59
2020/12/02 09:32:54;;;;;;;;;60.00;46.00;;;;;3.87;44.66;99471.50;6227508;27;97790;-59
2020/12/02 09:35:55;;;;;;;;;62.00;46.80;;;;;3.95;44.52;99475.22;6227802;27;98533;-60
2020/12/02 09:38:56;;;;;;;;;63.00;47.00;;;;;3.91;44.49;99440.00;6222005;28;97309;-60
2020/12/02 09:42:11;;;;;;;;;62.00;47.00;;;;;4.31;44.30;99472.03;6220422;27;97948;-60
2020/12/02 09:45:57;;;;;;;;;59.80;46.00;;;;;4.36;43.86;99471.53;6233165;28;96995;-58
2020/12/02 09:48:58;;;;;;;;;60.00;46.00;;;;;4.41;43.97;99444.31;6233035;28;97523;-59
2020/12/02 09:52:09;;;;;;;;;58.00;46.00;;;;;4.61;43.47;99456.31;6222000;28;97282;-58
2020/12/02 09:55:15;;;;;;;;;59.50;46.00;;;;;4.67;43.38;99456.47;6209344;28;97641;-59
2020/12/02 09:58:18;;;;;;;;;58.40;45.00;;;;;4.78;43.52;99457.97;6233770;27;96625;-59
2020/12/02 10:01:40;;;;;;;;;59.40;46.00;;;;;4.82;43.15;99453.94;6229280;27;97499;-60
2020/12/02 10:05:09;;;;;;;;;60.00;45.50;;;;;4.76;43.59;99439.44;6236428;27;97951;-59
2020/12/02 10:08:17;;;;;;;;;61.00;46.00;;;;;4.44;43.95;99419.97;6201648;28;97008;-59
2020/12/02 10:11:19;;;;;;;;;57.40;43.60;;;;;4.26;44.47;99436.16;6218665;28;98474;-58
2020/12/02 10:14:36;;;;;;;;;57.00;44.00;;;;;4.38;44.08;99418.81;6243385;27;97913;-60
2020/12/02 10:18:19;;;;;;;;;57.00;44.00;;;;;4.64;44.33;99423.94;6241801;27;97257;-59
2020/12/02 10:21:47;;;;;;;;;56.00;43.00;;;;;4.71;44.30;99415.06;6248885;27;98729;-59
2020/12/02 10:25:03;;;;;;;;;54.20;43.60;;;;;4.89;43.54;99427.38;6202956;27;98105;-58
2020/12/02 10:28:25;;;;;;;;;53.00;43.00;;;;;4.99;43.61;99425.31;6243156;27;97200;-59
2020/12/02 10:31:52;;;;;;;;;52.80;41.00;;;;;5.09;43.69;99417.94;6212280;28;97015;-60
2020/12/02 10:34:54;;;;;;;;;54.33;43.00;;;;;5.14;43.70;99407.56;6223847;28;97165;-60
2020/12/02 10:38:02;;;;;;;;;55.40;42.00;;;;;5.18;43.20;99412.38;6228727;27;97661;-59
2020/12/02 10:41:48;;;;;;;;;52.80;41.20;;;;;5.16;43.18;99416.25;6231482;28;97075;-59
2020/12/02 10:45:10;;;;;;;;;52.75;41.75;;;;;5.11;43.32;99406.06;6207560;28;97373;-59
2020/12/02 10:48:27;;;;;;;;;51.50;41.50;;;;;5.02;43.20;99414.28;6234572;28;97107;-59
2020/12/02 10:51:36;;;;;;;;;54.40;41.60;;;;;4.56;43.75;99405.25;6237525;28;98698;-59
2020/12/02 10:54:37;;;;;;;;;55.50;43.00;;;;;4.60;43.75;99407.41;6234239;28;97595;-59
2020/12/02 10:57:41;;;;;;;;;54.20;42.00;;;;;4.54;44.46;99402.78;6237216;27;96684;-59
2020/12/02 11:00:44;;;;;;;;;50.00;40.00;;;;;4.61;44.37;99398.41;6237256;28;99159;-59
2020/12/02 11:03:45;;;;;;;;;52.25;41.00;;;;;4.71;44.01;99391.03;6231387;28;97248;-59
2020/12/02 11:06:54;;;;;;;;;50.00;41.00;;;;;4.91;44.26;99391.47;6234107;28;97662;-58
2020/12/02 11:10:15;;;;;;;;;51.20;39.40;;;;;4.96;44.04;99386.44;6228992;28;97567;-59
2020/12/02 11:13:32;;;;;;;;;49.20;38.20;;;;;5.00;44.12;99385.06;6230692;28;98469;-59
2020/12/02 11:17:02;;;;;;;;;47.40;38.40;;;;;5.05;43.81;99390.72;6233047;28;97868;-58
2020/12/02 11:20:17;;;;;;;;;52.00;41.00;;;;;5.10;43.42;99385.69;6229526;27;97848;-58
2020/12/02 11:23:39;;;;;;;;;47.00;38.00;;;;;5.21;43.12;99381.81;6230614;28;97450;-59
2020/12/02 11:26:41;;;;;;;;;50.00;40.00;;;;;5.01;43.17;99346.66;6230453;27;97151;-60
2020/12/02 11:29:43;;;;;;;;;49.25;39.00;;;;;5.27;43.21;99381.09;6230388;28;97413;-60
2020/12/02 11:33:23;;;;;;;;;49.00;39.00;;;;;5.37;43.42;99384.38;6235364;28;97506;-60
2020/12/02 11:36:38;;;;;;;;;50.40;40.00;;;;;5.29;43.29;99380.91;6222114;28;98107;-62
2020/12/02 11:39:45;;;;;;;;;47.00;37.75;;;;;5.20;43.52;99374.78;6230059;28;97457;-60
2020/12/02 11:43:05;;;;;;;;;47.40;38.00;;;;;5.26;43.25;99375.94;6230503;28;97277;-60
2020/12/02 11:46:12;;;;;;;;;50.00;39.00;;;;;5.02;43.49;99339.47;6227207;28;98409;-59
2020/12/02 11:49:23;;;;;;;;;48.75;38.25;;;;;5.29;43.13;99373.72;6227387;28;97130;-60
2020/12/02 11:52:59;;;;;;;;;49.80;39.00;;;;;5.31;43.26;99370.88;6243134;27;97083;-59
2020/12/02 11:56:08;;;;;;;;;49.00;38.00;;;;;5.35;43.19;99353.47;6227214;28;97380;-59
2020/12/02 11:59:24;;;;;;;;;46.80;37.00;;;;;5.35;43.23;99354.31;6227094;28;97091;-59
2020/12/02 12:02:40;;;;;;;;;47.00;38.80;;;;;5.40;43.34;99351.94;6234822;27;96672;-60
2020/12/02 12:06:06;;;;;;;;;48.60;38.60;;;;;5.38;43.15;99350.44;6243831;27;97537;-60
2020/12/02 12:09:16;;;;;;;;;48.00;39.00;;;;;5.38;43.30;99345.94;6243534;27;98459;-60
2020/12/02 12:12:36;;;;;;;;;50.40;37.60;;;;;5.18;43.66;99342.88;6246388;27;97230;-60
2020/12/02 12:15:43;;;;;;;;;47.40;39.00;;;;;5.00;44.07;99347.66;6240181;27;97837;-59
2020/12/02 12:19:06;;;;;;;;;52.00;39.00;;;;;4.55;45.00;99332.31;6228860;28;96713;-59
2020/12/02 12:22:28;;;;;;;;;47.00;37.00;;;;;4.45;45.51;99320.22;6223239;28;96703;-59
2020/12/02 12:25:35;;;;;;;;;45.00;37.00;;;;;4.45;45.75;99331.69;6232120;28;97582;-60
2020/12/02 12:28:37;;;;;;;;;48.00;38.25;;;;;4.55;45.75;99323.47;6234220;27;97416;-60
2020/12/02 12:31:51;;;;;;;;;47.00;37.00;;;;;4.64;44.98;99320.59;6244829;27;97435;-59
2020/12/02 12:35:05;;;;;;;;;50.00;40.00;;;;;4.74;44.95;99321.22;6235278;27;97177;-59
2020/12/02 12:38:20;;;;;;;;;47.00;38.00;;;;;3.84;47.14;99319.81;6234324;28;97255;-59
2020/12/02 12:41:41;;;;;;;;;49.75;39.75;;;;;3.71;47.03;99311.50;6232493;28;97470;-59
2020/12/02 12:44:43;;;;;;;;;50.50;41.00;;;;;3.74;47.44;99297.84;6224013;27;96974;-59
2020/12/02 12:47:48;;;;;;;;;50.00;39.60;;;;;3.86;47.25;99301.81;6229945;27;96584;-59
2020/12/02 12:50:52;;;;;;;;;53.00;41.00;;;;;4.03;47.30;99296.44;6239206;27;97473;-59
2020/12/02 12:53:54;;;;;;;;;50.80;40.00;;;;;4.22;47.05;99294.22;6227167;28;96850;-62
2020/12/02 12:56:57;;;;;;;;;52.20;40.80;;;;;4.02;46.34;99246.75;6235844;27;96996;-61
2020/12/02 13:00:02;;;;;;;;;49.80;39.80;;;;;4.23;46.25;99282.56;6243499;27;96988;-61
2020/12/02 13:03:29;;;;;;;;;46.20;37.00;;;;;4.43;46.15;99279.50;6247585;27;97161;-58
2020/12/02 13:06:39;;;;;;;;;48.00;37.80;;;;;4.51;46.00;99284.78;6235625;27;97605;-60
2020/12/02 13:10:10;;;;;;;;;47.00;38.60;;;;;4.62;45.65;99273.72;6238664;27;97394;-60
2020/12/02 13:13:21;;;;;;;;;46.50;37.75;;;;;4.75;45.17;99266.81;6245777;27;96737;-59
2020/12/02 13:16:51;;;;;;;;;48.40;39.20;;;;;4.71;45.51;99281.53;6245049;27;97684;-59
2020/12/02 13:20:01;;;;;;;;;48.20;38.60;;;;;4.50;45.75;99259.09;6242706;27;96697;-60
2020/12/02 13:23:19;;;;;;;;;50.00;40.00;;;;;4.68;45.45;99281.06;6222415;27;97402;-59
2020/12/02 13:26:26;;;;;;;;;49.00;39.00;;;;;4.70;45.34;99281.69;6235427;27;97871;-59
2020/12/02 13:29:39;;;;;;;;;49.00;38.67;;;;;4.68;45.81;99287.22;6222754;27;96964;-60
2020/12/02 13:32:56;;;;;;;;;49.00;38.60;;;;;4.45;45.87;99288.16;6240993;27;97520;-59
2020/12/02 13:35:59;;;;;;;;;51.40;41.00;;;;;4.48;45.83;99274.47;6239244;27;97960;-59
2020/12/02 13:39:03;;;;;;;;;50.00;40.60;;;;;4.14;46.09;99248.06;6235688;27;98549;-60
2020/12/02 13:42:05;;;;;;;;;49.00;40.00;;;;;4.05;47.07;99289.97;6238766;27;96709;-59
2020/12/02 13:45:12;;;;;;;;;50.25;39.00;;;;;3.73;47.67;99285.50;6239664;27;97353;-60
2020/12/02 13:48:15;;;;;;;;;47.40;39.00;;;;;3.77;47.67;99267.31;6239231;27;97429;-59
2020/12/02 13:51:36;;;;;;;;;48.50;38.50;;;;;4.06;47.17;99267.59;6239585;27;96925;-60
2020/12/02 13:54:55;;;;;;;;;50.00;39.00;;;;;4.12;46.84;99264.25;6241119;27;97606;-61
2020/12/02 13:58:25;;;;;;;;;50.25;39.50;;;;;4.03;46.52;99259.94;6241637;27;97412;-59
2020/12/02 14:01:32;;;;;;;;;50.25;41.25;;;;;3.78;47.11;99253.00;6159986;27;98476;-60
2020/12/02 14:04:50;;;;;;;;;49.60;40.60;;;;;3.81;47.16;99242.81;6243682;27;97491;-60
2020/12/02 14:07:56;;;;;;;;;49.60;40.40;;;;;4.01;46.87;99248.59;6240166;27;97143;-60
2020/12/02 14:10:59;;;;;;;;;55.00;43.00;;;;;4.08;47.00;99267.44;6239692;27;97399;-60
2020/12/02 14:14:01;;;;;;;;;54.25;40.25;;;;;4.04;47.27;99263.44;6233349;27;96510;-60
2020/12/02 14:17:03;;;;;;;;;48.75;38.75;;;;;2.90;47.78;99151.63;6231232;27;96613;-60
2020/12/02 14:20:05;;;;;;;;;46.80;38.80;;;;;3.74;47.69;99247.16;6242072;27;97524;-59
2020/12/02 14:23:12;;;;;;;;;46.50;38.00;;;;;3.87;47.48;99254.63;6233693;27;97177;-59
2020/12/02 14:26:14;;;;;;;;;50.00;39.20;;;;;3.35;48.56;99256.88;6243532;27;96859;-60
2020/12/02 14:29:15;;;;;;;;;48.80;39.80;;;;;3.39;48.35;99258.19;6228664;27;97002;-60
2020/12/02 14:32:17;;;;;;;;;47.50;38.00;;;;;3.04;49.21;99262.84;6229720;28;97622;-59
2020/12/02 14:35:22;;;;;;;;;57.00;42.00;;;;;3.48;48.34;99259.84;6228223;28;97159;-59
2020/12/02 14:38:25;;;;;;;;;48.25;39.25;;;;;3.47;48.44;99248.34;6227017;27;97588;-59
2020/12/02 14:41:26;;;;;;;;;49.00;39.00;;;;;3.62;47.90;99232.50;6234409;27;97764;-59
2020/12/02 14:44:28;;;;;;;;;47.00;39.20;;;;;3.59;48.02;99224.03;6237771;27;97455;-59
2020/12/02 14:47:29;;;;;;;;;49.00;40.00;;;;;3.65;48.08;99218.03;6234308;27;97484;-60
2020/12/02 14:50:31;;;;;;;;;52.00;42.00;;;;;3.89;47.46;99204.63;6226532;28;96914;-60
2020/12/02 14:53:34;;;;;;;;;53.00;43.00;;;;;4.27;46.60;99224.31;6225794;28;97537;-59
2020/12/02 14:57:06;;;;;;;;;48.40;39.60;;;;;4.54;46.64;99218.53;6237056;27;97043;-59
2020/12/02 15:00:12;;;;;;;;;50.00;40.00;;;;;4.74;45.86;99217.06;6226418;28;97454;-61
2020/12/02 15:03:13;;;;;;;;;54.50;42.50;;;;;4.59;45.50;99193.97;6236054;27;97603;-60
2020/12/02 15:06:28;;;;;;;;;55.00;43.00;;;;;4.60;45.93;99233.84;6234713;28;96554;-59
2020/12/02 15:09:59;;;;;;;;;56.00;43.00;;;;;4.52;45.88;99230.38;6224180;28;96816;-60